Time;durP1;ratioP1;P1;durP2;ratioP2;P2;SDS_P1;SDS_P2;PMS_P1;PMS_P2;Temp;Humidity;BMP_temperature;BMP_pressure;BME280_temperature;BME280_humidity;BME280_pressure;Samples;Min_cycle;Max_cycle;Signal;HPM_P1;HPM_P2
2022/05/31 00:01:36;;;;;;;;;;;;;;;18.36;61.51;97608.19;5080173;28;19928;-58
2022/05/31 00:04:03;;;;;;;;;;;;;;;18.37;61.46;97606.28;5079429;28;19963;-58
2022/05/31 00:06:30;;;;;;;;;;;;;;;18.34;61.56;97600.41;5081389;28;19924;-58
2022/05/31 00:08:57;;;;;;;;;;;;;;;18.33;61.68;97593.41;5064960;28;19935;-58
2022/05/31 00:11:24;;;;;;;;;;;;;;;18.29;61.94;97595.13;5081962;28;19985;-58
2022/05/31 00:13:50;;;;;;;;;;;;;;;18.23;62.34;97599.13;5075089;28;19964;-59
2022/05/31 00:16:16;;;;;;;;;;;;;;;18.20;62.77;97594.34;5079516;28;19996;-59
2022/05/31 00:18:43;;;;;;;;;;;;;;;18.19;63.03;97598.19;5082680;28;19967;-59
2022/05/31 00:21:09;;;;;;;;;;;;;;;18.21;63.20;97595.97;5082616;28;20007;-58
2022/05/31 00:23:36;;;;;;;;;;;;;;;18.30;62.95;97593.25;5062225;28;19988;-60
2022/05/31 00:26:04;;;;;;;;;;;;;;;18.18;62.93;97593.91;5079333;28;19992;-62
2022/05/31 00:28:31;;;;;;;;;;;;;;;18.08;63.83;97594.22;5080984;28;20676;-59
2022/05/31 00:30:58;;;;;;;;;;;;;;;18.12;64.27;97599.78;5082631;28;19924;-58
2022/05/31 00:33:25;;;;;;;;;;;;;;;18.19;64.11;97592.78;5081438;28;19925;-58
2022/05/31 00:35:53;;;;;;;;;;;;;;;18.30;63.64;97585.13;5079014;28;19988;-58
2022/05/31 00:38:20;;;;;;;;;;;;;;;18.14;64.00;97584.81;5079698;28;19925;-58
2022/05/31 00:40:47;;;;;;;;;;;;;;;18.11;64.75;97579.25;5082459;28;20474;-58
2022/05/31 00:43:18;;;;;;;;;;;;;;;18.17;64.51;97583.38;5086413;28;19992;-58
2022/05/31 00:45:48;;;;;;;;;;;;;;;18.16;64.59;97581.81;5079035;28;19925;-58
2022/05/31 00:48:16;;;;;;;;;;;;;;;18.23;64.46;97582.09;5060931;28;19921;-59
2022/05/31 00:50:45;;;;;;;;;;;;;;;18.31;63.93;97582.13;5078598;28;19977;-59
2022/05/31 00:53:14;;;;;;;;;;;;;;;18.32;63.75;97594.50;5078958;28;20019;-59
2022/05/31 00:55:43;;;;;;;;;;;;;;;18.21;64.20;97587.84;5078768;28;19988;-58
2022/05/31 00:58:13;;;;;;;;;;;;;;;18.06;64.89;97588.34;5078934;28;19925;-58
2022/05/31 01:00:42;;;;;;;;;;;;;;;17.92;65.67;97597.72;5081844;28;19987;-58
2022/05/31 01:03:10;;;;;;;;;;;;;;;17.93;66.23;97596.59;5081961;28;19992;-58
2022/05/31 01:05:37;;;;;;;;;;;;;;;17.94;66.53;97595.50;5079123;28;20003;-58
2022/05/31 01:08:03;;;;;;;;;;;;;;;17.86;66.79;97599.75;5078827;28;19947;-58
2022/05/31 01:10:30;;;;;;;;;;;;;;;17.78;67.48;97595.97;5080541;28;19984;-59
2022/05/31 01:12:58;;;;;;;;;;;;;;;17.78;68.13;97597.88;5086424;28;19948;-58
2022/05/31 01:15:24;;;;;;;;;;;;;;;17.92;67.42;97598.50;5081128;28;19984;-59
2022/05/31 01:17:52;;;;;;;;;;;;;;;17.99;66.84;97606.13;5078697;28;19975;-59
2022/05/31 01:20:21;;;;;;;;;;;;;;;17.84;67.13;97602.00;5079086;28;19921;-59
2022/05/31 01:22:49;;;;;;;;;;;;;;;17.83;67.53;97605.81;5081937;28;20147;-59
2022/05/31 01:25:27;;;;;;;;;;;;;;;17.83;67.49;97613.09;5081860;28;20175;-59
2022/05/31 01:27:59;;;;;;;;;;;;;;;17.86;67.33;97607.09;5078205;28;19925;-59
2022/05/31 01:30:26;;;;;;;;;;;;;;;17.86;67.52;97610.56;5079452;28;19984;-58
2022/05/31 01:32:57;;;;;;;;;;;;;;;17.86;67.38;97613.28;5081649;28;19996;-59
2022/05/31 01:35:26;;;;;;;;;;;;;;;17.83;67.66;97605.00;5080494;28;19924;-58
2022/05/31 01:37:56;;;;;;;;;;;;;;;17.74;68.05;97605.00;5078116;28;19964;-58
2022/05/31 01:40:29;;;;;;;;;;;;;;;17.71;68.73;97606.44;5079122;28;19989;-58
2022/05/31 01:42:56;;;;;;;;;;;;;;;17.75;68.53;97603.91;5085647;28;19925;-58
2022/05/31 01:45:26;;;;;;;;;;;;;;;17.61;69.14;97611.34;5080650;28;20011;-59
2022/05/31 01:47:54;;;;;;;;;;;;;;;17.56;69.77;97608.78;5077969;28;19931;-59
2022/05/31 01:50:21;;;;;;;;;;;;;;;17.56;69.97;97606.09;5078476;28;19936;-57
2022/05/31 01:52:50;;;;;;;;;;;;;;;17.52;70.49;97600.50;5081477;28;19924;-58
2022/05/31 01:55:17;;;;;;;;;;;;;;;17.57;70.31;97607.69;5081327;28;19963;-58
2022/05/31 01:57:47;;;;;;;;;;;;;;;17.56;70.43;97606.91;5077831;28;19936;-58
2022/05/31 02:00:15;;;;;;;;;;;;;;;17.54;70.30;97613.69;5077884;28;19925;-58
2022/05/31 02:02:41;;;;;;;;;;;;;;;17.55;70.38;97601.78;5077721;28;19989;-59
2022/05/31 02:05:08;;;;;;;;;;;;;;;17.42;70.78;97597.31;5077863;28;19956;-59
2022/05/31 02:07:35;;;;;;;;;;;;;;;17.39;71.45;97604.13;5080237;28;19931;-57
2022/05/31 02:10:02;;;;;;;;;;;;;;;17.46;71.05;97607.16;5081163;28;20023;-57
2022/05/31 02:12:30;;;;;;;;;;;;;;;17.41;71.33;97593.81;5079415;28;19924;-58
2022/05/31 02:14:57;;;;;;;;;;;;;;;17.43;71.37;97599.69;5077313;28;20572;-59
2022/05/31 02:17:23;;;;;;;;;;;;;;;17.46;71.11;97600.94;5083873;28;20331;-58
2022/05/31 02:19:50;;;;;;;;;;;;;;;17.48;70.97;97601.44;5081212;28;19931;-59
2022/05/31 02:22:17;;;;;;;;;;;;;;;17.55;70.61;97601.78;5081479;28;19928;-58
2022/05/31 02:24:44;;;;;;;;;;;;;;;17.39;71.43;97606.03;5084871;28;19925;-58
2022/05/31 02:27:14;;;;;;;;;;;;;;;17.44;71.27;97600.47;5084816;28;19924;-58
2022/05/31 02:29:40;;;;;;;;;;;;;;;17.52;70.94;97605.09;5081324;28;19952;-59
2022/05/31 02:32:08;;;;;;;;;;;;;;;16.90;75.34;97597.13;5081037;28;19925;-58
2022/05/31 02:34:36;;;;;;;;;;;;;;;16.89;76.02;97606.34;5083410;28;20619;-58
2022/05/31 02:37:02;;;;;;;;;;;;;;;16.65;78.76;97600.50;5084515;28;20615;-59
2022/05/31 02:39:29;;;;;;;;;;;;;;;16.83;77.91;97596.81;5082561;28;19992;-59
2022/05/31 02:41:56;;;;;;;;;;;;;;;16.75;79.08;97594.84;5082097;28;19963;-58
2022/05/31 02:44:24;;;;;;;;;;;;;;;16.47;81.58;97593.38;5075885;28;19947;-59
2022/05/31 02:46:50;;;;;;;;;;;;;;;16.16;84.58;97604.13;5084160;28;19952;-59
2022/05/31 02:49:16;;;;;;;;;;;;;;;16.43;83.10;97606.69;5083787;28;19963;-58
2022/05/31 02:51:44;;;;;;;;;;;;;;;16.31;83.60;97605.66;5080666;28;19992;-58
2022/05/31 02:54:14;;;;;;;;;;;;;;;16.35;83.35;97607.44;5080725;28;19924;-56
2022/05/31 02:56:40;;;;;;;;;;;;;;;16.59;82.13;97597.13;5083792;28;19984;-57
2022/05/31 02:59:07;;;;;;;;;;;;;;;16.33;82.02;97598.88;5084009;28;19966;-57
2022/05/31 03:01:35;;;;;;;;;;;;;;;16.52;81.16;97601.38;5081370;28;20011;-57
2022/05/31 03:04:02;;;;;;;;;;;;;;;16.64;80.16;97615.09;5062496;28;19925;-57
2022/05/31 03:06:29;;;;;;;;;;;;;;;16.59;80.28;97609.81;5081814;28;19921;-58
2022/05/31 03:08:55;;;;;;;;;;;;;;;16.36;80.55;97608.22;5083656;28;19939;-57
2022/05/31 03:11:24;;;;;;;;;;;;;;;16.38;81.07;97612.19;5082524;28;19932;-57
2022/05/31 03:13:52;;;;;;;;;;;;;;;16.62;79.80;97609.19;5075967;28;20238;-58
2022/05/31 03:16:18;;;;;;;;;;;;;;;16.81;78.12;97620.56;5080483;28;19960;-58
2022/05/31 03:18:49;;;;;;;;;;;;;;;16.93;76.69;97604.59;5083547;28;19967;-58
2022/05/31 03:21:17;;;;;;;;;;;;;;;16.71;77.49;97600.06;5083584;28;19991;-58
2022/05/31 03:23:46;;;;;;;;;;;;;;;16.87;76.95;97605.03;5080433;28;19992;-58
2022/05/31 03:26:14;;;;;;;;;;;;;;;16.97;76.13;97613.66;5080546;28;19935;-58
2022/05/31 03:28:40;;;;;;;;;;;;;;;17.04;75.61;97621.31;5083634;28;19963;-58
2022/05/31 03:31:07;;;;;;;;;;;;;;;16.98;75.98;97626.06;5083727;28;20505;-57
2022/05/31 03:33:34;;;;;;;;;;;;;;;17.03;75.75;97617.81;5081344;28;19991;-58
2022/05/31 03:36:01;;;;;;;;;;;;;;;17.00;75.66;97615.75;5080299;28;20480;-57
2022/05/31 03:38:27;;;;;;;;;;;;;;;16.99;75.77;97619.53;5081709;28;19928;-58
2022/05/31 03:40:57;;;;;;;;;;;;;;;16.89;75.49;97617.13;5083449;28;19988;-58
2022/05/31 03:43:23;;;;;;;;;;;;;;;16.95;75.57;97623.19;5077999;28;19925;-58
2022/05/31 03:45:50;;;;;;;;;;;;;;;16.92;75.61;97627.31;5079839;28;19925;-58
2022/05/31 03:48:17;;;;;;;;;;;;;;;16.91;75.32;97636.50;5079763;28;19956;-57
2022/05/31 03:50:44;;;;;;;;;;;;;;;16.69;76.02;97634.63;5082926;28;19929;-57
2022/05/31 03:53:13;;;;;;;;;;;;;;;16.54;77.52;97629.63;5083180;28;19951;-57
2022/05/31 03:55:40;;;;;;;;;;;;;;;16.43;78.66;97638.25;5079932;28;19992;-57
2022/05/31 03:58:06;;;;;;;;;;;;;;;15.95;81.27;97635.31;5079865;28;19920;-57
2022/05/31 04:00:33;;;;;;;;;;;;;;;15.85;84.02;97649.00;5081872;28;19924;-57
2022/05/31 04:02:59;;;;;;;;;;;;;;;16.03;82.50;97643.47;5082746;28;20087;-57
2022/05/31 04:05:26;;;;;;;;;;;;;;;16.41;79.78;97641.22;5081525;28;19968;-57
2022/05/31 04:07:53;;;;;;;;;;;;;;;16.60;78.02;97643.78;5079477;28;20020;-57
2022/05/31 04:10:21;;;;;;;;;;;;;;;16.48;77.55;97648.91;5079666;28;19920;-57
2022/05/31 04:12:48;;;;;;;;;;;;;;;16.43;78.46;97646.34;5082662;28;19952;-57
2022/05/31 04:15:15;;;;;;;;;;;;;;;16.50;77.90;97646.69;5079258;28;19929;-57
2022/05/31 04:17:41;;;;;;;;;;;;;;;16.43;77.97;97651.72;5079344;28;19925;-57
2022/05/31 04:20:08;;;;;;;;;;;;;;;16.47;77.82;97653.47;5079210;28;19935;-57
2022/05/31 04:22:35;;;;;;;;;;;;;;;16.46;77.49;97657.31;5081606;28;19959;-58
2022/05/31 04:25:02;;;;;;;;;;;;;;;16.53;77.11;97652.25;5082280;28;19987;-57
2022/05/31 04:27:30;;;;;;;;;;;;;;;16.08;79.42;97662.22;5080440;28;19924;-57
2022/05/31 04:29:56;;;;;;;;;;;;;;;16.17;80.11;97665.00;5060810;28;19925;-58
2022/05/31 04:32:23;;;;;;;;;;;;;;;16.00;81.32;97672.94;5079334;28;19984;-58
2022/05/31 04:34:49;;;;;;;;;;;;;;;16.11;81.01;97661.63;5081932;28;20019;-57
2022/05/31 04:37:15;;;;;;;;;;;;;;;16.39;79.30;97662.31;5081485;28;19987;-58
2022/05/31 04:39:43;;;;;;;;;;;;;;;16.58;77.69;97667.56;5070146;28;19925;-58
2022/05/31 04:42:10;;;;;;;;;;;;;;;16.66;76.98;97675.69;5073403;28;19931;-58
2022/05/31 04:44:37;;;;;;;;;;;;;;;16.65;77.03;97675.97;5081786;28;19932;-58
2022/05/31 04:47:04;;;;;;;;;;;;;;;16.67;77.04;97668.41;5081841;28;19924;-58
2022/05/31 04:49:31;;;;;;;;;;;;;;;16.74;76.81;97668.78;5079614;28;20011;-58
2022/05/31 04:51:58;;;;;;;;;;;;;;;16.65;77.12;97675.97;5078524;28;19935;-58
2022/05/31 04:54:24;;;;;;;;;;;;;;;16.43;79.29;97684.06;5079486;28;19992;-58
2022/05/31 04:56:52;;;;;;;;;;;;;;;16.45;79.24;97681.84;5081832;28;19928;-57
2022/05/31 04:59:19;;;;;;;;;;;;;;;16.46;79.38;97672.69;5081344;28;19936;-58
2022/05/31 05:01:47;;;;;;;;;;;;;;;16.48;79.27;97667.75;5078175;28;19936;-58
2022/05/31 05:04:14;;;;;;;;;;;;;;;16.05;81.67;97673.63;5078279;28;19932;-57
2022/05/31 05:06:40;;;;;;;;;;;;;;;15.94;82.71;97676.81;5081455;28;19952;-58
2022/05/31 05:09:07;;;;;;;;;;;;;;;15.97;82.91;97665.44;5081681;28;19920;-58
2022/05/31 05:11:33;;;;;;;;;;;;;;;16.33;81.37;97676.22;5079312;28;19956;-57
2022/05/31 05:13:59;;;;;;;;;;;;;;;16.33;80.80;97665.44;5074156;28;19924;-59
2022/05/31 05:16:27;;;;;;;;;;;;;;;16.36;80.55;97670.22;5079503;28;19985;-57
2022/05/31 05:18:55;;;;;;;;;;;;;;;16.55;79.79;97682.44;5081585;28;19975;-57
2022/05/31 05:21:21;;;;;;;;;;;;;;;16.73;78.60;97672.56;5080862;28;19960;-59
2022/05/31 05:23:48;;;;;;;;;;;;;;;16.28;83.72;97674.41;5078215;28;19988;-58
2022/05/31 05:26:15;;;;;;;;;;;;;;;16.35;82.68;97665.91;5078519;28;19925;-58
2022/05/31 05:31:27;;;;;;;;;;;;;;;16.34;84.84;97670.50;5080439;28;19931;-59
2022/05/31 05:33:55;;;;;;;;;;;;;;;16.79;81.77;97670.53;5078527;28;19925;-57
2022/05/31 05:36:24;;;;;;;;;;;;;;;16.95;80.84;97667.16;5079083;28;19925;-58
2022/05/31 05:38:51;;;;;;;;;;;;;;;17.07;81.64;97656.56;5081679;28;19959;-58
2022/05/31 05:41:18;;;;;;;;;;;;;;;17.05;82.49;97661.47;5081562;28;20106;-58
2022/05/31 05:43:44;;;;;;;;;;;;;;;16.65;86.46;97666.00;5082567;28;19956;-57
2022/05/31 05:46:13;;;;;;;;;;;;;;;17.00;83.40;97671.59;5078468;28;19968;-58
2022/05/31 05:48:40;;;;;;;;;;;;;;;17.18;82.42;97662.47;5081431;28;20473;-58
2022/05/31 05:51:12;;;;;;;;;;;;;;;17.46;81.90;97663.84;5085674;28;20023;-58
2022/05/31 05:53:39;;;;;;;;;;;;;;;17.21;83.73;97657.25;5082337;28;19925;-58
2022/05/31 05:56:05;;;;;;;;;;;;;;;17.32;83.69;97662.38;5082169;28;19967;-58
2022/05/31 05:58:31;;;;;;;;;;;;;;;17.40;84.01;97669.69;5084102;28;19976;-59
2022/05/31 06:00:58;;;;;;;;;;;;;;;17.14;85.72;97665.00;5085529;28;19991;-58
2022/05/31 06:03:27;;;;;;;;;;;;;;;17.05;87.04;97674.19;5084287;28;19920;-58
2022/05/31 06:05:55;;;;;;;;;;;;;;;17.63;83.63;97669.34;5082048;28;19991;-59
2022/05/31 06:08:26;;;;;;;;;;;;;;;17.89;82.26;97663.19;5082612;28;19953;-57
2022/05/31 06:11:00;;;;;;;;;;;;;;;17.11;88.79;97671.00;5085140;28;20381;-58
2022/05/31 06:13:30;;;;;;;;;;;;;;;17.23;87.54;97659.66;5079548;28;19948;-58
2022/05/31 06:15:57;;;;;;;;;;;;;;;17.34;88.37;97670.94;5081745;28;19928;-59
2022/05/31 06:18:26;;;;;;;;;;;;;;;17.92;84.59;97662.56;5082600;28;19936;-59
2022/05/31 06:20:55;;;;;;;;;;;;;;;17.62;86.44;97656.13;5085327;28;20432;-59
2022/05/31 06:23:23;;;;;;;;;;;;;;;17.77;86.41;97653.00;5084259;28;19936;-58
2022/05/31 06:25:49;;;;;;;;;;;;;;;16.91;92.00;97651.88;5081003;28;19929;-58
2022/05/31 06:28:16;;;;;;;;;;;;;;;16.85;94.27;97653.09;5081039;28;19988;-58
2022/05/31 06:30:42;;;;;;;;;;;;;;;17.14;91.96;97638.00;5072555;28;19963;-58
2022/05/31 06:33:08;;;;;;;;;;;;;;;17.22;92.68;97645.34;5072844;28;19921;-59
2022/05/31 06:35:36;;;;;;;;;;;;;;;17.04;93.13;97635.59;5072528;28;19979;-58
2022/05/31 06:38:02;;;;;;;;;;;;;;;17.21;91.82;97648.34;5072418;28;19928;-58
2022/05/31 06:40:30;;;;;;;;;;;;;;;16.95;92.64;97642.88;5072431;28;19921;-59
2022/05/31 06:42:58;;;;;;;;;;;;;;;17.28;91.57;97629.81;5076552;28;19925;-59
2022/05/31 06:45:25;;;;;;;;;;;;;;;17.27;91.87;97623.63;5080686;28;19934;-57
2022/05/31 06:47:51;;;;;;;;;;;;;;;17.56;89.94;97620.41;5080701;28;19996;-57
2022/05/31 06:50:18;;;;;;;;;;;;;;;17.54;91.37;97621.78;5080475;28;19925;-58
2022/05/31 06:58:13;;;;;;;;;;;;;;;17.17;93.13;97620.41;5080634;28;19920;-58
2022/05/31 07:00:40;;;;;;;;;;;;;;;17.01;93.24;97614.66;5083132;28;19935;-59
2022/05/31 07:03:06;;;;;;;;;;;;;;;17.22;92.11;97610.28;5083934;28;19925;-58
2022/05/31 07:05:32;;;;;;;;;;;;;;;17.18;93.21;97614.69;5081604;28;19979;-58
2022/05/31 07:07:59;;;;;;;;;;;;;;;17.11;94.08;97608.94;5080414;28;19984;-59
2022/05/31 07:10:25;;;;;;;;;;;;;;;17.16;94.02;97611.53;5081430;28;20357;-59
2022/05/31 07:12:53;;;;;;;;;;;;;;;17.20;94.83;97604.41;5083039;28;19952;-57
2022/05/31 07:15:20;;;;;;;;;;;;;;;17.18;93.87;97606.59;5080185;28;19939;-58
2022/05/31 07:17:46;;;;;;;;;;;;;;;17.13;93.88;97606.75;5080078;28;20056;-58
2022/05/31 07:20:13;;;;;;;;;;;;;;;17.06;94.59;97603.69;5080282;28;19925;-59
2022/05/31 07:22:40;;;;;;;;;;;;;;;17.17;94.47;97596.94;5083214;28;19929;-59
2022/05/31 07:25:07;;;;;;;;;;;;;;;16.99;93.40;97600.66;5083646;28;20015;-59
2022/05/31 07:27:34;;;;;;;;;;;;;;;16.96;95.18;97603.97;5081056;28;19996;-59
2022/05/31 07:30:01;;;;;;;;;;;;;;;17.39;93.27;97608.75;5080020;28;19971;-58
2022/05/31 07:32:28;;;;;;;;;;;;;;;17.66;90.95;97609.31;5081369;28;19960;-58
2022/05/31 07:34:55;;;;;;;;;;;;;;;17.73;91.42;97604.19;5083324;28;20024;-58
2022/05/31 07:37:22;;;;;;;;;;;;;;;17.50;89.46;97612.72;5082614;28;20011;-59
2022/05/31 07:39:49;;;;;;;;;;;;;;;17.42;90.84;97598.13;5079606;28;19925;-57
2022/05/31 07:42:16;;;;;;;;;;;;;;;17.48;90.89;97604.16;5083846;28;19925;-58
2022/05/31 07:44:42;;;;;;;;;;;;;;;17.63;88.70;97601.81;5079559;28;19925;-58
2022/05/31 07:47:10;;;;;;;;;;;;;;;18.30;85.70;97604.84;5079671;28;19960;-58
2022/05/31 07:49:38;;;;;;;;;;;;;;;18.60;83.63;97600.38;5082206;28;19956;-59
2022/05/31 07:52:07;;;;;;;;;;;;;;;18.20;83.77;97591.66;5083147;28;19948;-58
2022/05/31 07:54:33;;;;;;;;;;;;;;;18.01;87.03;97596.59;5080624;28;19948;-58
2022/05/31 07:57:00;;;;;;;;;;;;;;;18.02;86.17;97600.88;5079742;28;19933;-57
2022/05/31 07:59:27;;;;;;;;;;;;;;;18.03;86.82;97597.09;5062971;28;19932;-58
2022/05/31 08:01:53;;;;;;;;;;;;;;;18.62;84.68;97587.31;5082740;28;19928;-57
2022/05/31 08:04:21;;;;;;;;;;;;;;;18.57;82.82;97594.81;5082410;28;19927;-57
2022/05/31 08:06:48;;;;;;;;;;;;;;;18.22;79.97;97602.16;5079135;28;20500;-58
2022/05/31 08:09:14;;;;;;;;;;;;;;;18.34;82.89;97602.31;5079273;28;19925;-58
2022/05/31 08:11:41;;;;;;;;;;;;;;;18.88;80.65;97611.56;5081607;28;19929;-58
2022/05/31 08:14:07;;;;;;;;;;;;;;;18.88;80.16;97611.56;5075797;28;19955;-58
2022/05/31 08:16:34;;;;;;;;;;;;;;;19.26;76.59;97609.69;5081300;28;19921;-58
2022/05/31 08:19:01;;;;;;;;;;;;;;;18.71;80.85;97600.81;5082445;28;19924;-59
2022/05/31 08:21:31;;;;;;;;;;;;;;;18.57;83.04;97605.66;5080962;28;20019;-57
2022/05/31 08:23:58;;;;;;;;;;;;;;;18.75;81.48;97601.78;5079285;28;19960;-58
2022/05/31 08:26:24;;;;;;;;;;;;;;;18.79;80.20;97608.09;5080100;28;19967;-58
2022/05/31 08:28:51;;;;;;;;;;;;;;;18.40;81.21;97597.53;5082335;28;19971;-58
2022/05/31 08:31:20;;;;;;;;;;;;;;;18.48;81.81;97592.09;5082309;28;19925;-59
2022/05/31 08:33:47;;;;;;;;;;;;;;;18.60;82.62;97596.88;5078785;28;19988;-58
2022/05/31 08:36:13;;;;;;;;;;;;;;;18.35;85.13;97598.50;5078956;28;19989;-58
2022/05/31 08:38:42;;;;;;;;;;;;;;;18.23;88.32;97603.72;5081855;28;19958;-59
2022/05/31 08:41:16;;;;;;;;;;;;;;;18.26;88.59;97603.88;5082291;28;19940;-58
2022/05/31 08:43:59;;;;;;;;;;;;;;;18.17;86.49;97592.28;5074547;28;19930;-58
2022/05/31 08:46:30;;;;;;;;;;;;;;;18.27;86.87;97586.56;5079957;28;19924;-59
2022/05/31 08:48:58;;;;;;;;;;;;;;;18.57;86.76;97586.72;5081872;28;19980;-58
2022/05/31 08:57:10;;;;;;;;;;;;;;;18.77;83.16;97584.09;5048182;28;20544;-58
2022/05/31 08:59:39;;;;;;;;;;;;;;;18.61;84.29;97579.53;5079590;28;19921;-58
2022/05/31 09:02:09;;;;;;;;;;;;;;;18.99;84.32;97572.22;5078435;28;19925;-60
2022/05/31 09:04:37;;;;;;;;;;;;;;;19.24;82.88;97576.72;5081207;28;19932;-59
2022/05/31 09:07:06;;;;;;;;;;;;;;;19.36;81.34;97568.69;5082207;28;19956;-59
2022/05/31 09:09:38;;;;;;;;;;;;;;;19.29;80.26;97573.81;5079986;28;19925;-59
2022/05/31 09:12:10;;;;;;;;;;;;;;;19.25;79.46;97567.47;5081227;28;19924;-59
2022/05/31 09:14:42;;;;;;;;;;;;;;;19.08;80.74;97566.78;5073693;28;19927;-58
2022/05/31 09:17:13;;;;;;;;;;;;;;;19.20;79.54;97567.66;5082275;28;19947;-57
2022/05/31 09:19:42;;;;;;;;;;;;;;;19.21;77.54;97555.72;5078791;28;19925;-59
2022/05/31 09:22:09;;;;;;;;;;;;;;;19.61;76.45;97558.06;5078399;28;19979;-58
2022/05/31 09:24:41;;;;;;;;;;;;;;;19.51;72.96;97553.81;5084327;28;19967;-59
2022/05/31 09:27:08;;;;;;;;;;;;;;;19.47;73.29;97557.50;5085964;28;19951;-58
2022/05/31 09:29:51;;;;;;;;;;;;;;;19.40;73.94;97563.44;5083239;28;19976;-59
2022/05/31 09:32:27;;;;;;;;;;;;;;;19.34;73.15;97545.78;5082385;28;19983;-58
2022/05/31 09:35:06;;;;;;;;;;;;;;;19.35;68.39;97556.28;5068018;28;19924;-59
2022/05/31 09:37:41;;;;;;;;;;;;;;;19.50;65.69;97557.63;5083500;28;19984;-59
2022/05/31 09:40:16;;;;;;;;;;;;;;;19.79;67.47;97548.66;5082408;28;19991;-59
2022/05/31 09:42:46;;;;;;;;;;;;;;;19.77;65.75;97540.09;5078088;28;19972;-58
2022/05/31 09:45:15;;;;;;;;;;;;;;;19.55;66.38;97543.13;5081431;28;19983;-59
2022/05/31 09:47:41;;;;;;;;;;;;;;;19.70;67.76;97535.19;5081960;28;19968;-58
2022/05/31 09:50:08;;;;;;;;;;;;;;;19.89;66.86;97537.44;5082042;28;19984;-59
2022/05/31 09:52:36;;;;;;;;;;;;;;;19.93;66.40;97532.91;5084274;28;19933;-59
2022/05/31 09:57:55;;;;;;;;;;;;;;;19.88;66.94;97531.22;5081705;28;20412;-59
2022/05/31 10:00:22;;;;;;;;;;;;;;;19.97;67.75;97531.13;5082213;28;19921;-59
2022/05/31 10:02:58;;;;;;;;;;;;;;;20.20;65.10;97532.38;5085110;28;19955;-59
2022/05/31 10:05:25;;;;;;;;;;;;;;;20.23;63.04;97522.75;5084006;28;19992;-59
2022/05/31 10:07:51;;;;;;;;;;;;;;;20.31;64.36;97522.69;5081594;28;19978;-59
2022/05/31 10:10:19;;;;;;;;;;;;;;;20.68;64.01;97511.91;5081559;28;20004;-58
2022/05/31 10:12:50;;;;;;;;;;;;;;;20.96;60.42;97520.97;5093556;28;19925;-58
2022/05/31 10:15:34;;;;;;;;;;;;;;;20.59;61.96;97501.16;5085010;28;19924;-58
2022/05/31 10:18:02;;;;;;;;;;;;;;;20.59;62.04;97516.63;5073009;28;19956;-58
2022/05/31 10:20:28;;;;;;;;;;;;;;;20.80;62.49;97506.47;5073026;28;19985;-59
2022/05/31 10:22:57;;;;;;;;;;;;;;;20.80;60.63;97506.47;5072906;28;19959;-59
2022/05/31 10:25:25;;;;;;;;;;;;;;;20.68;59.46;97503.75;5072978;28;19980;-59
2022/05/31 10:27:56;;;;;;;;;;;;;;;20.89;59.70;97501.72;5072747;28;20388;-59
2022/05/31 10:30:23;;;;;;;;;;;;;;;21.03;59.39;97499.47;5072772;28;19936;-59
2022/05/31 10:32:52;;;;;;;;;;;;;;;20.76;59.23;97494.75;5072753;28;19932;-59
2022/05/31 10:35:20;;;;;;;;;;;;;;;20.71;60.12;97489.53;5071726;28;19925;-59
2022/05/31 10:37:57;;;;;;;;;;;;;;;20.63;54.48;97488.50;5072677;28;19974;-59
2022/05/31 10:40:26;;;;;;;;;;;;;;;20.64;53.22;97483.88;5072691;28;19931;-59
2022/05/31 10:42:55;;;;;;;;;;;;;;;20.70;54.11;97474.38;5086120;28;19932;-59
2022/05/31 10:45:22;;;;;;;;;;;;;;;20.70;54.25;97482.53;5083753;28;19935;-60
2022/05/31 10:47:48;;;;;;;;;;;;;;;20.72;54.20;97478.34;5080605;28;19963;-58
2022/05/31 10:50:16;;;;;;;;;;;;;;;20.77;55.27;97480.81;5080705;28;19995;-58
2022/05/31 10:52:50;;;;;;;;;;;;;;;20.75;55.74;97471.44;5080800;28;20460;-58
2022/05/31 10:55:24;;;;;;;;;;;;;;;20.95;56.53;97462.41;5080739;28;19971;-58
2022/05/31 10:58:00;;;;;;;;;;;;;;;21.11;55.19;97463.28;5072384;28;19992;-59
2022/05/31 11:00:33;;;;;;;;;;;;;;;21.15;56.25;97458.78;5072187;28;19960;-58
2022/05/31 11:03:14;;;;;;;;;;;;;;;21.58;57.52;97460.00;5072027;28;19925;-59
2022/05/31 11:05:47;;;;;;;;;;;;;;;21.72;54.45;97463.16;5072053;28;19995;-58
2022/05/31 11:13:59;;;;;;;;;;;;;;;21.49;49.97;97463.66;5076334;28;19929;-58
2022/05/31 11:16:37;;;;;;;;;;;;;;;21.55;49.69;97469.66;5081278;28;19925;-58
2022/05/31 11:19:11;;;;;;;;;;;;;;;21.63;50.01;97457.88;5083667;28;19928;-59
2022/05/31 11:21:52;;;;;;;;;;;;;;;21.62;50.58;97466.34;5080723;28;19924;-59
2022/05/31 11:24:27;;;;;;;;;;;;;;;21.59;51.15;97467.03;5062550;28;19920;-59
2022/05/31 11:27:03;;;;;;;;;;;;;;;21.71;51.78;97459.63;5083397;28;19964;-58
2022/05/31 11:29:41;;;;;;;;;;;;;;;21.68;51.65;97460.31;5081526;28;19925;-58
2022/05/31 11:32:13;;;;;;;;;;;;;;;21.71;51.78;97453.41;5080013;28;19952;-59
2022/05/31 11:34:46;;;;;;;;;;;;;;;21.93;51.34;97450.16;5065264;28;19928;-58
2022/05/31 11:37:19;;;;;;;;;;;;;;;21.86;50.91;97439.06;5083427;28;19962;-58
2022/05/31 11:39:56;;;;;;;;;;;;;;;21.93;50.07;97436.56;5079815;28;20023;-59
2022/05/31 11:42:29;;;;;;;;;;;;;;;21.87;49.00;97435.22;5083888;28;19920;-59
2022/05/31 11:45:02;;;;;;;;;;;;;;;21.98;50.12;97434.38;5076641;28;19925;-59
2022/05/31 11:47:47;;;;;;;;;;;;;;;22.07;46.42;97434.22;5081545;28;19932;-59
2022/05/31 11:50:18;;;;;;;;;;;;;;;21.96;46.30;97427.72;5079422;28;20020;-58
2022/05/31 11:52:53;;;;;;;;;;;;;;;22.13;48.01;97432.06;5079313;28;19929;-59
2022/05/31 11:55:26;;;;;;;;;;;;;;;22.14;48.41;97425.44;5079761;28;19936;-58
2022/05/31 11:57:59;;;;;;;;;;;;;;;22.16;49.57;97423.97;5082667;28;19935;-59
2022/05/31 12:00:28;;;;;;;;;;;;;;;22.22;49.26;97417.13;5081623;28;20063;-59
2022/05/31 12:02:57;;;;;;;;;;;;;;;22.16;49.89;97420.47;5079122;28;19928;-58
2022/05/31 12:05:29;;;;;;;;;;;;;;;22.35;49.53;97420.53;5080346;28;19957;-58
2022/05/31 12:08:00;;;;;;;;;;;;;;;22.25;49.51;97410.97;5082662;28;19924;-58
2022/05/31 12:10:28;;;;;;;;;;;;;;;22.43;50.21;97417.66;5081238;28;19935;-58
2022/05/31 12:12:57;;;;;;;;;;;;;;;22.40;49.74;97407.50;5078991;28;20015;-59
2022/05/31 12:15:24;;;;;;;;;;;;;;;22.25;50.44;97408.25;5078852;28;19924;-58
2022/05/31 12:17:53;;;;;;;;;;;;;;;22.29;50.41;97400.19;5078947;28;19991;-59
2022/05/31 12:20:23;;;;;;;;;;;;;;;22.46;50.32;97408.00;5079115;28;19971;-58
2022/05/31 12:22:56;;;;;;;;;;;;;;;22.42;50.90;97399.75;5082064;28;19920;-58
2022/05/31 12:25:27;;;;;;;;;;;;;;;22.57;50.09;97415.28;5081431;28;19992;-59
2022/05/31 12:27:56;;;;;;;;;;;;;;;22.42;48.70;97399.75;5078800;28;19993;-59
2022/05/31 12:30:25;;;;;;;;;;;;;;;22.36;50.03;97403.09;5079559;28;19932;-58
2022/05/31 12:32:54;;;;;;;;;;;;;;;22.51;52.74;97397.66;5082184;28;19970;-58
2022/05/31 12:35:52;;;;;;;;;;;;;;;22.75;50.30;97399.38;5081704;28;19920;-58
2022/05/31 12:38:18;;;;;;;;;;;;;;;22.86;51.02;97405.88;5078631;28;19992;-59
2022/05/31 12:40:50;;;;;;;;;;;;;;;22.83;50.02;97395.69;5081995;28;19935;-59
2022/05/31 12:43:39;;;;;;;;;;;;;;;22.75;50.33;97393.16;5078176;28;19925;-59
2022/05/31 12:46:20;;;;;;;;;;;;;;;22.70;49.84;97394.22;5078702;28;19956;-57
2022/05/31 12:48:54;;;;;;;;;;;;;;;22.86;48.98;97395.00;5069958;28;19964;-57
2022/05/31 12:51:24;;;;;;;;;;;;;;;22.86;49.07;97381.38;5070204;28;19960;-58
2022/05/31 12:53:58;;;;;;;;;;;;;;;22.81;49.12;97386.31;5070200;28;19925;-58
2022/05/31 12:56:40;;;;;;;;;;;;;;;22.78;48.60;97390.50;5070186;28;19971;-58
2022/05/31 12:59:10;;;;;;;;;;;;;;;22.82;49.41;97377.78;5069882;28;19921;-58
2022/05/31 13:01:57;;;;;;;;;;;;;;;22.91;47.85;97378.38;5069874;28;19928;-58
2022/05/31 13:04:28;;;;;;;;;;;;;;;23.18;47.57;97373.09;5070053;28;19964;-59
2022/05/31 13:06:59;;;;;;;;;;;;;;;22.87;50.24;97374.00;5070127;28;19948;-59
2022/05/31 13:09:33;;;;;;;;;;;;;;;23.09;50.29;97376.81;5070012;28;19967;-59
2022/05/31 13:20:20;;;;;;;;;;;;;;;23.26;48.15;97364.72;5081701;28;19924;-59
2022/05/31 13:22:48;;;;;;;;;;;;;;;23.21;47.86;97367.72;5069876;28;19943;-58
2022/05/31 13:25:17;;;;;;;;;;;;;;;23.44;47.41;97359.66;5052358;28;19972;-58
2022/05/31 13:27:49;;;;;;;;;;;;;;;23.34;46.08;97360.97;5069849;28;19931;-59